Time;durP1;ratioP1;P1;durP2;ratioP2;P2;SDS_P1;SDS_P2;PMS_P1;PMS_P2;Temp;Humidity;BMP_temperature;BMP_pressure;BME280_temperature;BME280_humidity;BME280_pressure;Samples;Min_cycle;Max_cycle;Signal;HPM_P1;HPM_P2
2022/09/12 00:38:49;;;;;;;6.60;2.83;;;;;;;17.91;100.00;94558.19;4966418;23;20069;-91
2022/09/12 00:41:16;;;;;;;6.65;2.53;;;;;;;17.97;100.00;94553.53;4953895;28;20046;-92
2022/09/12 00:43:48;;;;;;;4.72;2.38;;;;;;;18.13;100.00;94551.22;4948433;28;20035;-91
2022/09/12 00:46:29;;;;;;;5.57;2.30;;;;;;;18.09;100.00;94554.50;4945371;29;20035;-92
2022/09/12 00:49:02;;;;;;;3.40;1.95;;;;;;;18.20;100.00;94552.31;4954431;28;20034;-91
2022/09/12 00:51:29;;;;;;;8.97;2.57;;;;;;;18.13;100.00;94556.53;4964528;28;20041;-92
2022/09/12 00:53:55;;;;;;;10.35;2.60;;;;;;;17.71;100.00;94549.72;4948466;28;20579;-91
2022/09/12 00:56:22;;;;;;;4.28;2.30;;;;;;;18.01;100.00;94547.31;4948342;28;20035;-93
2022/09/12 00:59:02;;;;;;;5.40;2.45;;;;;;;18.20;100.00;94552.31;4948156;28;20469;-92
2022/09/12 01:01:29;;;;;;;5.20;2.17;;;;;;;18.25;100.00;94545.34;4964660;28;20031;-91
2022/09/12 01:03:55;;;;;;;3.97;2.20;;;;;;;18.20;100.00;94544.38;4948621;28;20347;-92
2022/09/12 01:06:25;;;;;;;6.80;2.47;;;;;;;18.33;100.00;94547.97;4948372;28;20023;-92
2022/09/12 01:08:54;;;;;;;7.53;2.42;;;;;;;18.16;100.00;94537.38;4964279;28;20030;-92
2022/09/12 01:11:20;;;;;;;7.07;2.50;;;;;;;18.18;100.00;94543.13;4964179;28;20431;-92
2022/09/12 01:13:48;;;;;;;3.63;2.20;;;;;;;18.30;100.00;94545.16;4964315;28;20035;-92
2022/09/12 01:16:17;;;;;;;8.00;2.40;;;;;;;18.29;100.00;94540.97;4964210;28;20503;-92
2022/09/12 01:18:49;;;;;;;7.32;2.10;;;;;;;18.32;100.00;94540.31;4963943;28;20044;-92
2022/09/12 01:21:59;;;;;;;4.60;2.87;;;;;;;17.90;100.00;94541.50;4948410;28;20420;-92
2022/09/12 01:24:33;;;;;;;6.40;2.78;;;;;;;17.40;100.00;94539.97;4973163;28;20431;-92
2022/09/12 01:27:56;;;;;;;;;;;;;;;;;;;;;
2022/09/12 01:30:48;;;;;;;9.82;2.70;;;;;;;17.65;100.00;94530.56;4913893;28;20042;-92
2022/09/12 01:33:41;;;;;;;9.10;2.65;;;;;;;17.77;100.00;94529.16;4963935;28;20035;-92
2022/09/12 01:36:12;;;;;;;6.87;2.73;;;;;;;17.51;100.00;94532.53;4963666;28;20344;-91
2022/09/12 01:38:51;;;;;;;4.88;2.50;;;;;;;17.49;100.00;94532.84;4963729;28;20042;-91
2022/09/12 01:41:49;;;;;;;4.43;2.50;;;;;;;17.83;100.00;94530.59;4964801;28;20046;-91
2022/09/12 01:44:40;;;;;;;5.50;2.38;;;;;;;17.72;100.00;94521.38;4963691;28;20034;-92
2022/09/12 01:47:13;;;;;;;14.60;2.72;;;;;;;17.76;100.00;94520.44;4963221;28;20053;-91
2022/09/12 01:50:03;;;;;;;7.05;2.67;;;;;;;17.62;100.00;94522.44;4963695;28;20037;-91
2022/09/12 01:52:33;;;;;;;9.77;2.42;;;;;;;17.43;100.00;94522.69;4963258;28;20495;-91
2022/09/12 01:55:21;;;;;;;7.72;2.85;;;;;;;17.40;100.00;94518.00;4947299;28;20030;-91
2022/09/12 01:57:56;;;;;;;7.90;2.58;;;;;;;17.64;100.00;94518.38;4947557;28;20118;-92
2022/09/12 02:00:24;;;;;;;5.03;2.47;;;;;;;17.73;100.00;94520.28;4963022;28;20038;-92
2022/09/12 02:03:01;;;;;;;5.03;2.40;;;;;;;17.84;100.00;94513.59;4963555;28;20085;-91
2022/09/12 02:05:31;;;;;;;2.45;1.98;;;;;;;17.87;100.00;94518.28;4947414;28;20038;-92
2022/09/12 02:08:06;;;;;;;6.13;2.35;;;;;;;17.89;100.00;94516.09;4962969;28;20113;-91
2022/09/12 02:10:49;;;;;;;5.32;2.30;;;;;;;17.96;100.00;94515.63;4962769;28;20392;-92
2022/09/12 02:13:22;;;;;;;4.78;2.10;;;;;;;17.95;100.00;94509.56;4962821;28;20031;-91
2022/09/12 02:15:54;;;;;;;5.90;2.22;;;;;;;17.93;100.00;94508.31;4946767;28;20031;-91
2022/09/12 02:18:20;;;;;;;5.47;2.15;;;;;;;18.06;100.00;94510.06;4962653;28;20031;-90
2022/09/12 02:20:49;;;;;;;6.30;2.00;;;;;;;18.20;100.00;94507.25;4963076;28;20034;-90
2022/09/12 02:23:23;;;;;;;9.13;1.88;;;;;;;18.41;100.00;94524.41;4979820;28;20027;-92
2022/09/12 02:25:52;;;;;;;4.32;2.00;;;;;;;18.33;100.00;94508.19;4963002;28;20037;-91
2022/09/12 02:28:22;;;;;;;2.90;1.65;;;;;;;18.41;100.00;94516.44;4946978;28;20042;-91
2022/09/12 02:31:00;;;;;;;4.78;1.98;;;;;;;18.31;100.00;94505.09;4946488;28;20062;-91
2022/09/12 02:33:32;;;;;;;6.53;2.30;;;;;;;18.27;100.00;94516.63;4946669;28;20436;-90
2022/09/12 02:36:05;;;;;;;3.53;1.83;;;;;;;18.21;100.00;94505.38;4962338;28;20027;-93
2022/09/12 02:38:38;;;;;;;;;;;;;;;18.18;100.00;94504.13;4980330;28;20047;-90
2022/09/12 02:41:04;;;;;;;8.45;2.40;;;;;;;17.60;100.00;94498.91;4962112;28;19921;-92
2022/09/12 02:43:29;;;;;;;9.18;2.13;;;;;;;17.33;100.00;94498.03;4979473;28;20035;-91
2022/09/12 02:45:55;;;;;;;4.80;2.20;;;;;;;17.49;100.00;94497.63;4979473;28;20030;-92
2022/09/12 02:48:25;;;;;;;6.40;1.80;;;;;;;18.02;100.00;94510.97;4979419;28;20033;-91
2022/09/12 02:50:50;;;;;;;5.70;2.15;;;;;;;18.15;100.00;94506.66;4954501;28;20039;-91
2022/09/12 02:53:17;;;;;;;5.68;2.22;;;;;;;18.20;100.00;94501.19;4979334;28;20444;-90
2022/09/12 02:55:42;;;;;;;3.95;1.88;;;;;;;18.31;100.00;94499.00;4962272;28;20030;-90
2022/09/12 02:58:12;;;;;;;5.20;1.80;;;;;;;18.36;100.00;94496.97;4961957;28;20038;-90
2022/09/12 03:00:53;;;;;;;3.00;1.33;;;;;;;18.36;100.00;94499.59;4961836;28;20034;-91
2022/09/12 03:03:46;;;;;;;5.35;1.92;;;;;;;18.48;100.00;94504.28;4961875;28;20027;-91
2022/09/12 03:06:22;;;;;;;6.35;1.90;;;;;;;18.39;100.00;94505.38;4978780;28;20333;-90
2022/09/12 03:08:52;;;;;;;3.90;1.73;;;;;;;18.40;100.00;94501.63;4961672;28;20122;-91
2022/09/12 03:11:25;;;;;;;4.85;1.63;;;;;;;18.34;100.00;94507.09;4961668;28;20077;-90
2022/09/12 03:14:01;;;;;;;5.32;1.60;;;;;;;18.63;100.00;94492.41;4979497;28;20352;-91
2022/09/12 03:16:34;;;;;;;6.15;1.60;;;;;;;18.40;100.00;94491.03;4978782;28;20030;-91
2022/09/12 03:19:12;;;;;;;2.17;1.35;;;;;;;18.35;100.00;94491.97;4961466;28;20126;-92
2022/09/12 03:22:07;;;;;;;6.88;2.10;;;;;;;18.02;100.00;94495.06;4978696;28;20034;-92
2022/09/12 03:24:36;;;;;;;4.38;1.77;;;;;;;18.20;100.00;94483.38;4941176;28;20042;-91
2022/09/12 03:27:24;;;;;;;7.68;2.15;;;;;;;18.12;100.00;94484.19;4978610;28;20125;-91
2022/09/12 03:29:50;;;;;;;5.47;1.70;;;;;;;18.19;100.00;94487.13;4945835;28;20041;-91
2022/09/12 03:32:16;;;;;;;3.00;1.48;;;;;;;17.99;100.00;94493.03;4978461;28;20038;-91
2022/09/12 03:34:48;;;;;;;3.97;1.60;;;;;;;18.02;100.00;94484.44;4945672;28;20031;-91
2022/09/12 03:37:16;;;;;;;3.70;1.70;;;;;;;17.89;100.00;94488.81;4962136;28;20424;-91
2022/09/12 03:39:41;;;;;;;6.63;1.73;;;;;;;17.94;100.00;94492.09;4961742;28;20347;-92
2022/09/12 03:42:07;;;;;;;4.13;1.95;;;;;;;17.46;100.00;94483.13;4961166;28;20027;-91
2022/09/12 03:44:32;;;;;;;7.05;2.00;;;;;;;17.49;100.00;94492.31;4961154;28;20356;-91
2022/09/12 03:46:58;;;;;;;3.45;2.00;;;;;;;17.28;100.00;94494.75;4978341;28;20063;-90
2022/09/12 03:49:23;;;;;;;4.57;1.70;;;;;;;16.74;100.00;94496.34;4978207;28;20053;-92
2022/09/12 03:51:49;;;;;;;9.65;2.60;;;;;;;16.80;100.00;94495.16;4978268;28;20031;-91
2022/09/12 03:54:14;;;;;;;4.28;1.80;;;;;;;17.16;100.00;94497.97;4978199;28;20038;-92
2022/09/12 03:56:40;;;;;;;5.80;2.00;;;;;;;17.23;100.00;94495.69;4977988;28;20344;-91
2022/09/12 03:59:05;;;;;;;7.20;2.17;;;;;;;17.21;100.00;94495.97;4978064;28;20098;-91
2022/09/12 04:01:32;;;;;;;6.78;1.90;;;;;;;16.97;100.00;94496.31;4960887;28;20034;-91
2022/09/12 04:03:57;;;;;;;5.95;1.85;;;;;;;17.03;100.00;94497.00;4960845;28;20435;-90
2022/09/12 04:06:23;;;;;;;5.07;1.88;;;;;;;17.26;100.00;94489.78;4944668;28;20030;-92
2022/09/12 04:08:50;;;;;;;5.13;2.45;;;;;;;17.26;100.00;94494.28;4977893;28;20027;-91
2022/09/12 04:11:16;;;;;;;5.00;2.00;;;;;;;17.35;100.00;94487.91;4960773;28;20026;-91
2022/09/12 04:13:43;;;;;;;3.85;1.77;;;;;;;17.24;100.00;94497.25;4977810;28;20037;-92
2022/09/12 04:16:10;;;;;;;6.75;1.88;;;;;;;17.26;100.00;94491.63;4960153;28;20032;-91
2022/09/12 04:18:35;;;;;;;7.80;2.40;;;;;;;16.99;100.00;94493.34;4960334;28;20062;-91
2022/09/12 04:21:10;;;;;;;4.97;1.90;;;;;;;16.95;100.00;94499.25;4960658;28;20132;-90
2022/09/12 04:23:38;;;;;;;5.75;2.05;;;;;;;17.17;100.00;94504.84;4960557;28;20117;-90
2022/09/12 04:26:06;;;;;;;4.88;1.80;;;;;;;17.42;100.00;94497.28;4960711;28;20031;-91
2022/09/12 04:28:35;;;;;;;6.47;1.73;;;;;;;17.39;100.00;94509.28;4960622;28;20026;-91
2022/09/12 04:31:06;;;;;;;6.20;2.28;;;;;;;16.99;100.00;94496.00;4960927;28;20034;-91
2022/09/12 04:33:32;;;;;;;6.78;2.25;;;;;;;17.02;100.00;94490.91;4944852;28;20038;-91
2022/09/12 04:36:17;;;;;;;8.05;2.10;;;;;;;17.15;100.00;94499.06;4956533;29;20037;-90
2022/09/12 04:38:44;;;;;;;7.13;2.30;;;;;;;17.21;100.00;94503.13;4958377;28;20039;-91
2022/09/12 04:41:11;;;;;;;5.88;1.77;;;;;;;17.14;100.00;94500.16;4956533;29;20028;-90
2022/09/12 04:43:37;;;;;;;7.68;2.50;;;;;;;17.34;100.00;94501.47;4959637;28;20034;-91
2022/09/12 04:46:10;;;;;;;3.80;1.90;;;;;;;17.31;100.00;94502.88;4944534;28;20034;-91
2022/09/12 04:48:36;;;;;;;4.95;2.13;;;;;;;17.12;100.00;94505.75;4977506;28;20082;-91
2022/09/12 04:51:09;;;;;;;5.47;2.08;;;;;;;16.96;100.00;94502.69;4960294;28;20030;-90
2022/09/12 04:53:37;;;;;;;4.05;1.85;;;;;;;16.73;100.00;94505.38;4960826;28;20034;-92
2022/09/12 04:56:07;;;;;;;4.60;2.20;;;;;;;16.64;100.00;94502.69;4977492;28;20027;-90
2022/09/12 04:58:33;;;;;;;3.33;1.95;;;;;;;16.81;100.00;94503.84;4942141;28;20082;-91
2022/09/12 05:01:16;;;;;;;4.22;1.90;;;;;;;17.16;100.00;94505.91;4977398;28;20030;-92
2022/09/12 05:03:43;;;;;;;3.80;1.95;;;;;;;17.08;100.00;94500.31;4960185;28;20393;-91
2022/09/12 05:06:11;;;;;;;3.13;1.92;;;;;;;16.73;100.00;94501.97;4977284;28;20037;-91
2022/09/12 05:08:37;;;;;;;7.15;2.00;;;;;;;16.92;100.00;94501.72;4960031;28;20035;-91
2022/09/12 05:11:23;;;;;;;3.65;2.00;;;;;;;17.18;100.00;94507.19;4977258;28;20413;-91
2022/09/12 05:13:48;;;;;;;7.63;2.00;;;;;;;17.14;100.00;94502.81;4960031;28;20031;-91
2022/09/12 05:16:15;;;;;;;6.22;2.50;;;;;;;16.79;100.00;94504.19;4960032;28;20041;-91
2022/09/12 05:18:41;;;;;;;1.88;1.70;;;;;;;17.21;100.00;94511.88;4960047;28;20073;-91
2022/09/12 05:21:10;;;;;;;3.88;2.03;;;;;;;17.27;100.00;94514.38;4959743;28;20069;-90
2022/09/12 05:23:36;;;;;;;7.45;2.30;;;;;;;17.32;100.00;94512.38;4963878;28;20108;-88
2022/09/12 05:26:03;;;;;;;7.40;2.20;;;;;;;17.50;100.00;94515.84;4959967;28;20034;-88
2022/09/12 05:28:30;;;;;;;4.88;1.70;;;;;;;17.64;100.00;94521.03;4961700;28;20039;-87
2022/09/12 05:31:06;;;;;;;3.72;1.55;;;;;;;17.74;100.00;94519.19;4950535;28;20085;-88
2022/09/12 05:33:34;;;;;;;7.07;2.05;;;;;;;17.66;100.00;94528.69;4983168;28;20038;-87
2022/09/12 05:36:00;;;;;;;3.20;1.60;;;;;;;17.62;100.00;94522.44;5000291;28;20030;-87
2022/09/12 05:38:27;;;;;;;2.83;2.10;;;;;;;17.81;100.00;94527.47;5000628;28;20371;-87
2022/09/12 05:41:02;;;;;;;3.25;1.75;;;;;;;18.06;100.00;94530.47;4966924;28;20045;-87
2022/09/12 05:43:28;;;;;;;3.70;1.75;;;;;;;18.13;100.00;94530.03;4966737;28;20037;-87
2022/09/12 05:46:09;;;;;;;3.78;1.77;;;;;;;18.26;100.00;94536.28;4982880;28;20351;-87
2022/09/12 05:48:35;;;;;;;4.28;1.77;;;;;;;18.23;100.00;94541.13;4981971;28;20038;-87
2022/09/12 05:51:25;;;;;;;5.88;1.70;;;;;;;18.35;100.00;94539.69;4963588;28;20065;-87
2022/09/12 05:53:59;;;;;;;8.15;1.90;;;;;;;18.60;100.00;94543.44;4963756;28;20045;-87
2022/09/12 05:56:29;;;;;;;3.17;1.73;;;;;;;18.78;100.00;94546.06;4947288;28;20429;-86
2022/09/12 05:59:00;;;;;;;3.05;1.67;;;;;;;18.92;100.00;94548.53;4963597;28;20035;-86
2022/09/12 06:01:27;;;;;;;7.40;2.53;;;;;;;18.89;100.00;94549.16;4963040;28;20138;-87
2022/09/12 06:03:54;;;;;;;5.38;1.95;;;;;;;18.78;100.00;94549.50;4975244;28;20034;-89
2022/09/12 06:06:25;;;;;;;4.15;2.00;;;;;;;18.67;100.00;94542.97;4982499;28;20446;-89
2022/09/12 06:08:53;;;;;;;5.30;1.75;;;;;;;18.76;100.00;94540.31;4982585;28;20057;-87
2022/09/12 06:11:24;;;;;;;5.20;2.00;;;;;;;18.87;100.00;94540.75;4982803;28;20038;-89
2022/09/12 06:13:50;;;;;;;7.97;2.20;;;;;;;18.92;100.00;94544.00;4982792;28;20045;-87
2022/09/12 06:16:21;;;;;;;6.18;1.88;;;;;;;19.23;100.00;94542.25;4982224;28;20026;-88
2022/09/12 06:18:58;;;;;;;3.08;1.70;;;;;;;19.37;100.00;94542.03;4966038;28;20069;-88
2022/09/12 06:21:25;;;;;;;5.25;1.80;;;;;;;19.49;100.00;94549.31;4989385;28;20030;-88
2022/09/12 06:23:52;;;;;;;4.32;1.70;;;;;;;19.39;100.00;94536.41;4980059;28;20031;-90
2022/09/12 06:26:22;;;;;;;10.32;1.58;;;;;;;19.59;100.00;94540.22;4962608;28;20027;-91
2022/09/12 06:28:48;;;;;;;3.67;2.03;;;;;;;19.86;100.00;94541.63;4962943;28;20034;-90
2022/09/12 06:31:16;;;;;;;11.48;2.50;;;;;;;19.43;100.00;94545.28;4962698;28;20045;-91
2022/09/12 06:33:44;;;;;;;7.43;2.15;;;;;;;19.94;100.00;94544.59;4963009;28;20034;-90
2022/09/12 06:36:11;;;;;;;3.80;1.60;;;;;;;19.91;100.00;94541.44;4962285;28;20038;-90
2022/09/12 06:38:38;;;;;;;4.28;2.50;;;;;;;20.24;100.00;94540.00;4962522;28;20042;-90
2022/09/12 06:41:09;;;;;;;3.65;1.65;;;;;;;20.42;100.00;94545.19;4961616;28;20512;-91
2022/09/12 06:43:34;;;;;;;4.65;1.73;;;;;;;20.52;100.00;94547.47;4962361;28;20027;-91
2022/09/12 06:46:00;;;;;;;4.25;1.90;;;;;;;20.58;100.00;94540.06;4979584;28;20035;-91
2022/09/12 06:48:26;;;;;;;4.30;1.83;;;;;;;20.56;100.00;94539.59;4962320;28;20347;-90
2022/09/12 06:50:57;;;;;;;3.22;1.67;;;;;;;20.68;100.00;94534.34;4979228;28;20147;-90
2022/09/12 06:53:23;;;;;;;6.38;2.05;;;;;;;20.36;100.00;94533.97;4979292;28;20030;-91
2022/09/12 06:56:07;;;;;;;7.03;2.38;;;;;;;20.57;100.00;94536.59;4961991;28;20030;-91
2022/09/12 06:58:33;;;;;;;5.18;1.90;;;;;;;20.47;100.00;94540.44;4972417;28;20035;-91
2022/09/12 07:01:18;;;;;;;7.72;1.85;;;;;;;20.61;100.00;94544.72;4959755;29;20074;-90
2022/09/12 07:03:49;;;;;;;1.90;1.48;;;;;;;20.69;100.00;94546.53;4942692;29;20027;-90
2022/09/12 07:06:17;;;;;;;3.92;1.60;;;;;;;20.71;100.00;94536.34;4942566;29;20476;-87
2022/09/12 07:08:42;;;;;;;3.13;1.67;;;;;;;20.65;100.00;94534.97;4942682;29;20117;-87
2022/09/12 07:11:20;;;;;;;7.15;2.20;;;;;;;20.83;100.00;94537.50;4942780;29;20035;-87
2022/09/12 07:13:48;;;;;;;4.68;2.00;;;;;;;20.85;100.00;94537.97;4943026;29;20082;-87
2022/09/12 07:16:14;;;;;;;7.90;1.92;;;;;;;20.94;100.00;94538.63;4942764;29;20035;-87
2022/09/12 07:18:40;;;;;;;4.47;2.03;;;;;;;20.89;100.00;94536.19;4959894;29;20035;-88
2022/09/12 07:21:13;;;;;;;4.72;2.13;;;;;;;21.17;100.00;94541.69;4966541;28;20114;-90
2022/09/12 07:23:40;;;;;;;7.35;2.38;;;;;;;21.25;100.00;94539.25;4961378;28;20027;-91
2022/09/12 07:26:08;;;;;;;7.32;1.90;;;;;;;21.20;100.00;94534.91;4961989;28;20137;-90
2022/09/12 07:28:34;;;;;;;5.43;2.00;;;;;;;21.03;100.00;94536.66;4945351;28;20027;-91
2022/09/12 07:31:11;;;;;;;4.15;1.73;;;;;;;21.30;100.00;94534.50;4966301;28;20368;-90
2022/09/12 07:33:37;;;;;;;5.88;2.20;;;;;;;21.36;100.00;94528.94;4963030;28;20125;-90
2022/09/12 07:36:04;;;;;;;7.72;2.10;;;;;;;21.49;100.00;94535.06;4960913;28;20113;-90
2022/09/12 07:38:30;;;;;;;9.13;2.03;;;;;;;21.54;100.00;94543.63;4943055;28;20035;-91
2022/09/12 07:40:56;;;;;;;6.70;2.30;;;;;;;21.61;100.00;94533.16;4961157;28;20037;-91
2022/09/12 07:43:21;;;;;;;3.45;1.83;;;;;;;21.73;100.00;94542.31;4945632;28;20050;-91
2022/09/12 07:45:47;;;;;;;6.47;2.17;;;;;;;21.80;100.00;94539.84;4961513;28;20054;-93
2022/09/12 07:48:12;;;;;;;4.20;2.28;;;;;;;21.91;100.00;94548.19;4945342;28;20026;-91
2022/09/12 07:50:38;;;;;;;4.90;2.28;;;;;;;21.81;100.00;94546.75;4960942;28;20026;-90
2022/09/12 07:53:04;;;;;;;5.28;2.00;;;;;;;21.92;100.00;94544.41;4960999;28;20027;-91
2022/09/12 07:55:30;;;;;;;13.13;2.50;;;;;;;22.04;100.00;94548.94;4961402;28;20026;-91
2022/09/12 07:57:58;;;;;;;3.63;1.80;;;;;;;22.10;100.00;94552.94;4945296;28;20023;-92
2022/09/12 08:00:23;;;;;;;4.30;2.00;;;;;;;22.17;100.00;94561.16;4958897;28;20034;-91
2022/09/12 08:02:53;;;;;;;6.15;1.88;;;;;;;22.35;100.00;94552.88;4961321;28;20030;-90
2022/09/12 08:05:19;;;;;;;4.00;1.88;;;;;;;22.39;100.00;94555.66;4961285;28;20147;-91
2022/09/12 08:07:46;;;;;;;3.63;1.95;;;;;;;22.52;100.00;94546.50;4945335;28;20030;-91
2022/09/12 08:10:14;;;;;;;2.35;1.80;;;;;;;22.55;100.00;94545.84;4960876;28;20432;-92
2022/09/12 08:12:39;;;;;;;4.90;1.75;;;;;;;22.67;100.00;94545.03;4977680;28;20073;-91
2022/09/12 08:15:05;;;;;;;4.85;1.58;;;;;;;22.78;100.00;94550.66;4945178;28;20023;-90
2022/09/12 08:17:42;;;;;;;2.90;1.67;;;;;;;22.71;100.00;94548.56;4961055;28;20019;-92
2022/09/12 08:20:08;;;;;;;7.47;2.03;;;;;;;22.89;100.00;94550.91;4976458;28;20030;-91
2022/09/12 08:22:35;;;;;;;6.55;2.33;;;;;;;23.08;100.00;94544.94;4960342;28;20035;-90
2022/09/12 08:25:01;;;;;;;6.97;2.10;;;;;;;23.07;100.00;94542.59;4941789;29;20070;-91
2022/09/12 08:27:29;;;;;;;7.43;2.17;;;;;;;23.18;100.00;94546.31;4957290;29;20417;-89
2022/09/12 08:29:54;;;;;;;4.82;2.08;;;;;;;23.19;100.00;94545.19;4957464;29;20032;-90
2022/09/12 08:32:20;;;;;;;5.00;2.20;;;;;;;23.21;100.00;94547.53;4957570;29;20346;-91
2022/09/12 08:34:45;;;;;;;3.65;1.58;;;;;;;23.37;100.00;94555.56;4941327;29;20027;-91
2022/09/12 08:37:11;;;;;;;5.53;1.85;;;;;;;23.34;100.00;94546.38;4941497;29;20143;-91
2022/09/12 08:39:36;;;;;;;8.65;2.05;;;;;;;23.55;100.00;94559.47;4940967;29;20035;-91
2022/09/12 08:42:06;;;;;;;2.35;1.45;;;;;;;23.68;99.94;94554.78;4958867;28;20460;-90
2022/09/12 08:45:04;;;;;;;6.15;1.52;;;;;;;23.83;100.00;94563.94;4958595;29;20038;-91
2022/09/12 08:47:35;;;;;;;4.97;1.65;;;;;;;23.85;95.27;94558.22;4941326;29;20437;-90
2022/09/12 08:50:15;;;;;;;4.00;2.20;;;;;;;23.93;98.34;94556.47;4956959;29;20055;-90
2022/09/12 08:53:02;;;;;;;4.45;1.90;;;;;;;23.92;86.95;94558.41;4958252;29;20031;-89
2022/09/12 08:55:40;;;;;;;4.93;1.92;;;;;;;23.86;91.90;94560.56;4925894;29;20333;-90
2022/09/12 08:58:28;;;;;;;7.60;2.13;;;;;;;23.90;100.00;94555.28;4925747;29;20027;-92
2022/09/12 09:00:59;;;;;;;9.52;3.15;;;;;;;24.05;86.95;94558.31;4971574;28;20034;-92
2022/09/12 09:04:06;;;;;;;11.05;2.65;;;;;;;24.08;94.02;94565.63;4981421;28;20030;-90
2022/09/12 09:07:06;;;;;;;6.20;2.22;;;;;;;24.13;85.35;94566.16;4987829;28;20507;-91
2022/09/12 09:09:41;;;;;;;7.45;2.38;;;;;;;23.82;86.41;94567.72;4961736;29;20034;-91
2022/09/12 09:12:35;;;;;;;7.88;1.80;;;;;;;24.19;93.59;94563.97;4944916;29;20081;-91
2022/09/12 09:15:09;;;;;;;3.80;1.70;;;;;;;24.31;80.82;94572.97;4962610;29;20027;-91
2022/09/12 09:17:47;;;;;;;5.80;1.90;;;;;;;24.43;96.14;94570.97;4961648;29;20132;-91
2022/09/12 09:20:21;;;;;;;4.70;1.58;;;;;;;24.46;85.10;94571.41;4944729;29;20039;-91
2022/09/12 09:22:54;;;;;;;5.85;1.90;;;;;;;24.46;85.48;94568.72;4961939;29;20377;-91
2022/09/12 09:25:32;;;;;;;4.57;2.00;;;;;;;24.60;95.11;94569.00;4944779;29;20019;-90
2022/09/12 09:28:36;;;;;;;5.32;1.80;;;;;;;24.73;85.81;94560.81;4945789;29;20422;-91
2022/09/12 09:31:01;;;;;;;4.63;1.73;;;;;;;24.87;89.19;94554.97;4911457;29;20027;-92
2022/09/12 09:33:32;;;;;;;4.45;1.90;;;;;;;24.89;87.38;94552.72;4960346;29;20366;-89
2022/09/12 09:36:15;;;;;;;4.38;1.70;;;;;;;25.13;87.72;94557.00;4960563;29;20071;-91
2022/09/12 09:38:48;;;;;;;4.10;2.25;;;;;;;25.04;79.94;94559.13;4961152;29;20047;-90
2022/09/12 09:41:17;;;;;;;3.60;1.80;;;;;;;25.12;89.44;94556.22;4944169;29;20071;-92
2022/09/12 09:43:43;;;;;;;3.40;1.73;;;;;;;25.08;83.42;94559.94;4961487;29;20085;-92
2022/09/12 09:46:10;;;;;;;8.02;2.03;;;;;;;25.10;81.35;94553.13;4944137;29;20031;-87
2022/09/12 09:48:39;;;;;;;4.20;1.75;;;;;;;25.18;84.22;94559.38;4961227;29;20416;-93
2022/09/12 09:51:06;;;;;;;8.02;2.10;;;;;;;24.94;85.20;94555.88;4961157;29;20062;-90
2022/09/12 09:53:34;;;;;;;6.90;2.20;;;;;;;25.17;82.39;94559.72;4944354;29;20043;-90
2022/09/12 09:56:02;;;;;;;3.13;1.80;;;;;;;25.43;77.27;94548.31;4961052;29;20027;-91
2022/09/12 09:58:30;;;;;;;5.03;1.60;;;;;;;25.41;85.87;94555.94;4943640;29;20058;-91
2022/09/12 10:01:00;;;;;;;4.32;1.67;;;;;;;25.39;79.40;94550.91;4960907;29;20064;-90
2022/09/12 10:03:31;;;;;;;4.50;1.65;;;;;;;25.35;71.57;94546.63;4960963;29;20089;-91
2022/09/12 10:06:07;;;;;;;5.07;1.95;;;;;;;25.59;84.14;94552.78;4960874;29;20425;-91
2022/09/12 10:08:35;;;;;;;6.68;1.75;;;;;;;25.46;71.27;94554.84;4960795;29;20027;-90
2022/09/12 10:11:16;;;;;;;3.58;1.35;;;;;;;25.61;76.72;94550.53;4961068;29;20460;-91
2022/09/12 10:13:52;;;;;;;6.75;2.58;;;;;;;25.75;76.76;94544.59;4943824;28;20031;-89
2022/09/12 10:16:26;;;;;;;5.75;2.10;;;;;;;25.70;79.19;94540.31;4968463;28;20049;-90
2022/09/12 10:18:53;;;;;;;2.58;1.63;;;;;;;25.93;76.67;94540.28;4966103;28;20035;-91
2022/09/12 10:21:34;;;;;;;7.80;1.85;;;;;;;25.89;73.40;94542.09;4979819;28;20038;-90
2022/09/12 10:24:15;;;;;;;2.72;1.58;;;;;;;25.75;78.25;94545.38;4979879;28;20023;-89
2022/09/12 10:26:40;;;;;;;7.05;1.73;;;;;;;25.73;69.52;94536.91;4980122;28;20117;-90
2022/09/12 10:29:13;;;;;;;3.20;1.80;;;;;;;25.95;72.60;94543.34;4962460;28;20539;-91
2022/09/12 10:31:47;;;;;;;6.03;1.70;;;;;;;25.73;82.59;94531.53;4979935;28;20023;-89
2022/09/12 10:34:26;;;;;;;7.35;1.55;;;;;;;25.98;71.36;94539.94;4962872;28;20034;-91
2022/09/12 10:36:58;;;;;;;6.68;1.60;;;;;;;25.86;67.61;94539.41;4962428;28;20388;-91
2022/09/12 10:39:23;;;;;;;4.38;1.73;;;;;;;25.71;65.69;94531.13;4962574;28;20062;-90
2022/09/12 10:41:49;;;;;;;4.00;1.60;;;;;;;26.07;69.96;94528.19;4962155;28;20034;-91
2022/09/12 10:44:17;;;;;;;5.07;1.98;;;;;;;26.11;66.71;94524.41;4961933;28;20038;-91
2022/09/12 10:46:43;;;;;;;5.28;1.88;;;;;;;26.15;65.75;94529.06;4979589;28;20022;-90
2022/09/12 10:49:38;;;;;;;10.48;1.90;;;;;;;26.05;74.53;94523.16;4962316;28;20041;-90
2022/09/12 10:52:22;;;;;;;5.85;1.70;;;;;;;26.20;72.70;94526.06;4953871;28;20169;-91
2022/09/12 10:54:59;;;;;;;4.20;1.80;;;;;;;26.06;67.35;94515.91;4962048;28;20479;-89
2022/09/12 10:58:06;;;;;;;5.97;1.90;;;;;;;26.13;68.82;94523.28;4963332;28;20026;-90
2022/09/12 11:00:45;;;;;;;6.78;1.40;;;;;;;26.42;65.46;94524.41;4946275;28;20053;-90
2022/09/12 11:03:24;;;;;;;4.75;1.50;;;;;;;26.58;62.83;94521.53;4946043;28;20030;-90
2022/09/12 11:05:57;;;;;;;6.93;1.80;;;;;;;26.38;68.37;94518.25;4962472;28;20026;-91
2022/09/12 11:09:00;;;;;;;3.28;1.55;;;;;;;26.71;65.55;94510.56;4961777;28;20066;-91
2022/09/12 11:11:25;;;;;;;4.13;1.40;;;;;;;26.89;65.17;94516.13;4962221;28;20031;-90
2022/09/12 11:14:29;;;;;;;5.18;1.33;;;;;;;26.75;nan;94514.03;4961668;28;20085;-91
2022/09/12 11:17:22;;;;;;;3.05;1.65;;;;;;;26.85;60.37;94509.91;4966074;28;20042;-92
2022/09/12 11:20:04;;;;;;;6.40;1.65;;;;;;;26.69;62.33;94510.91;4961769;28;20491;-91
2022/09/12 11:22:46;;;;;;;2.83;1.30;;;;;;;26.92;66.23;94510.03;4962825;28;20026;-91
2022/09/12 11:25:24;;;;;;;2.25;1.10;;;;;;;26.92;64.41;94512.72;4977761;28;20041;-91
2022/09/12 11:28:12;;;;;;;8.18;1.45;;;;;;;26.96;56.88;94516.97;4995249;28;20045;-92
2022/09/12 11:31:02;;;;;;;3.05;1.42;;;;;;;26.57;62.06;94520.00;4978586;28;20027;-88
2022/09/12 11:33:34;;;;;;;1.92;1.40;;;;;;;26.37;55.83;94514.75;4947834;28;20038;-90
2022/09/12 11:36:04;;;;;;;2.92;1.20;;;;;;;26.68;62.92;94515.53;4961239;28;20030;-89
2022/09/12 11:38:34;;;;;;;5.90;2.95;;;;;;;26.70;60.81;94517.06;4945320;28;20042;-92
2022/09/12 11:41:03;;;;;;;5.85;1.45;;;;;;;26.99;61.88;94517.38;4978250;28;20044;-90
2022/09/12 11:43:44;;;;;;;3.70;1.45;;;;;;;26.98;59.11;94516.59;4961056;28;20096;-90
2022/09/12 11:46:10;;;;;;;3.00;1.30;;;;;;;26.96;57.33;94513.50;4978607;28;20130;-88
2022/09/12 11:48:50;;;;;;;6.30;1.48;;;;;;;26.70;60.77;94511.69;4978573;28;20113;-87
2022/09/12 11:51:53;;;;;;;8.90;1.63;;;;;;;26.39;56.26;94509.81;4960989;28;20030;-88
2022/09/12 11:54:27;;;;;;;3.47;1.60;;;;;;;26.20;54.49;94515.31;4959033;29;20114;-89
2022/09/12 11:57:03;;;;;;;5.47;1.40;;;;;;;26.60;58.48;94513.09;4958840;29;20058;-91
2022/09/12 11:59:38;;;;;;;2.10;1.13;;;;;;;27.00;58.43;94514.31;4941601;29;20396;-90
2022/09/12 12:02:11;;;;;;;5.25;1.30;;;;;;;27.36;59.81;94503.88;4941826;29;20027;-92
2022/09/12 12:04:38;;;;;;;;;;;;;;;27.40;52.82;94503.13;4959190;29;20066;-92
2022/09/12 12:07:07;;;;;;;5.50;1.27;;;;;;;27.43;55.26;94505.06;4941724;29;19917;-91
2022/09/12 12:09:33;;;;;;;3.50;1.42;;;;;;;27.98;53.46;94498.16;4957360;29;20030;-90
2022/09/12 12:12:03;;;;;;;2.42;1.52;;;;;;;27.92;53.03;94503.13;4942168;29;20365;-89
2022/09/12 12:14:39;;;;;;;2.83;1.25;;;;;;;27.91;52.30;94505.06;4958664;29;20028;-89
2022/09/12 12:17:14;;;;;;;6.03;1.52;;;;;;;27.79;50.91;94497.28;4959466;29;20416;-91
2022/09/12 12:19:40;;;;;;;4.32;1.30;;;;;;;27.73;49.40;94496.88;4925519;29;20039;-93
2022/09/12 12:22:19;;;;;;;4.03;1.60;;;;;;;27.37;50.87;94494.66;4941282;29;20477;-90
2022/09/12 12:25:01;;;;;;;2.30;0.90;;;;;;;27.80;52.03;94498.81;4941643;29;20406;-88
2022/09/12 12:27:48;;;;;;;5.28;1.83;;;;;;;27.15;49.32;94495.63;4958526;29;20031;-88
2022/09/12 12:30:29;;;;;;;3.15;1.20;;;;;;;26.96;50.95;94490.06;4957691;29;20129;-89
2022/09/12 12:33:06;;;;;;;4.30;1.50;;;;;;;27.15;50.01;94491.03;4958994;28;20058;-91